createdAt,value
2024-01-12T00:02:08.599Z,100424.53
2024-01-12T00:05:12.092Z,100422.12
2024-01-12T00:08:16.561Z,100426.91
2024-01-12T00:11:20.045Z,100423.19
2024-01-12T00:14:23.436Z,100430.09
2024-01-12T00:17:29.414Z,100436.47
2024-01-12T00:20:33.462Z,100433.84
2024-01-12T00:23:36.874Z,100436.47
2024-01-12T00:26:40.227Z,100438.03
2024-01-12T00:29:43.873Z,100443.56
2024-01-12T00:32:50.049Z,100438.84
2024-01-12T00:35:53.724Z,100445.75
2024-01-12T00:38:56.825Z,100439.88
2024-01-12T00:42:00.296Z,100436.69
2024-01-12T00:45:05.406Z,100436.69
2024-01-12T00:48:09.636Z,100436.66
2024-01-12T00:51:15.131Z,100443.28
2024-01-12T00:54:24.367Z,100440.66
2024-01-12T00:57:27.509Z,100444.66
2024-01-12T01:00:32.486Z,100438.56
2024-01-12T01:03:39.372Z,100441.16
2024-01-12T01:06:42.976Z,100451.75
2024-01-12T01:09:46.018Z,100448.53
2024-01-12T01:12:49.279Z,100446.94
2024-01-12T01:15:52.247Z,100444.28
2024-01-12T01:18:55.701Z,100447.47
2024-01-12T01:22:01.122Z,100453.28
2024-01-12T01:25:06.042Z,100452.75
2024-01-12T01:28:09.182Z,100464.13
2024-01-12T01:31:13.596Z,100458.03
2024-01-12T01:34:17.376Z,100468.38
2024-01-12T01:37:28.301Z,100460.72
2024-01-12T01:40:31.661Z,100458.44
2024-01-12T01:43:36.005Z,100454.47
2024-01-12T01:46:39.051Z,100454.50
2024-01-12T01:49:45.664Z,100455.56
2024-01-12T01:52:48.733Z,100450.78
2024-01-12T01:55:52.187Z,100444.97
2024-01-12T01:58:55.299Z,100457.41
2024-01-12T02:01:59.838Z,100482.06
2024-01-12T02:05:04.542Z,100487.31
2024-01-12T02:08:08.336Z,100492.06
2024-01-12T02:11:11.541Z,100492.84
2024-01-12T02:14:14.794Z,100492.84
2024-01-12T02:17:21.716Z,100498.19
2024-01-12T02:20:24.872Z,100497.41
2024-01-12T02:23:28.268Z,100491.88
2024-01-12T02:26:31.286Z,100489.97
2024-01-12T02:29:34.635Z,100493.44
2024-01-12T02:32:39.577Z,100498.72
2024-01-12T02:35:44.540Z,100500.25
2024-01-12T02:38:50.310Z,100509.50
2024-01-12T02:41:55.959Z,100499.66
2024-01-12T02:44:58.953Z,100499.62
2024-01-12T02:48:04.217Z,100505.44
2024-01-12T02:51:08.624Z,100507.22
2024-01-12T02:54:12.022Z,100507.16
2024-01-12T02:57:15.362Z,100507.16
2024-01-12T03:00:18.993Z,100506.03
2024-01-12T03:03:23.093Z,100507.38
2024-01-12T03:06:26.503Z,100507.06
2024-01-12T03:09:29.703Z,100497.53
2024-01-12T03:12:33.017Z,100499.38
2024-01-12T03:15:38.455Z,100489.56
2024-01-12T03:18:41.835Z,100494.50
2024-01-12T03:21:45.679Z,100493.25
2024-01-12T03:24:49.904Z,100496.19
2024-01-12T03:27:52.839Z,100496.19
2024-01-12T03:30:56.810Z,100502.50
2024-01-12T03:34:00.534Z,100495.06
2024-01-12T03:37:04.158Z,100503.25
2024-01-12T03:40:08.471Z,100489.75
2024-01-12T03:43:12.934Z,100499.06
2024-01-12T03:46:15.956Z,100503.00
2024-01-12T03:49:20.481Z,100501.94
2024-01-12T03:52:23.662Z,100503.00
2024-01-12T03:55:27.261Z,100506.16
2024-01-12T03:58:31.552Z,100500.31
2024-01-12T04:01:34.866Z,100500.59
2024-01-12T04:04:38.141Z,100501.66
2024-01-12T04:07:41.216Z,100498.03
2024-01-12T04:10:46.743Z,100503.84
2024-01-12T04:13:49.815Z,100503.84
2024-01-12T04:16:53.078Z,100510.66
2024-01-12T04:19:56.376Z,100503.41
2024-01-12T04:23:00.108Z,100503.91
2024-01-12T04:26:03.271Z,100500.19
2024-01-12T04:29:07.148Z,100502.56
2024-01-12T04:32:12.254Z,100511.31
2024-01-12T04:35:15.819Z,100515.25
2024-01-12T04:38:20.799Z,100512.69
2024-01-12T04:41:24.242Z,100505.16
2024-01-12T04:44:27.266Z,100503.59
2024-01-12T04:47:31.731Z,100513.66
2024-01-12T04:50:35.228Z,100521.03
2024-01-12T04:53:38.856Z,100529.25
2024-01-12T04:56:42.435Z,100533.44
2024-01-12T04:59:45.865Z,100532.66
2024-01-12T05:02:49.323Z,100540.59
2024-01-12T05:05:52.736Z,100542.94
2024-01-12T05:08:57.554Z,100551.38
2024-01-12T05:12:06.466Z,100565.41
2024-01-12T05:15:10.170Z,100572.03
2024-01-12T05:18:13.651Z,100579.19
2024-01-12T05:21:19.705Z,100571.84
2024-01-12T05:24:23.157Z,100574.75
2024-01-12T05:27:26.794Z,100576.84
2024-01-12T05:30:31.926Z,100581.03
2024-01-12T05:33:37.286Z,100581.34
2024-01-12T05:36:42.130Z,100583.69
2024-01-12T05:39:47.278Z,100592.78
2024-01-12T05:42:50.559Z,100585.91
2024-01-12T05:45:55.741Z,100590.66
2024-01-12T05:49:05.450Z,100590.63
2024-01-12T05:52:10.036Z,100597.66
2024-01-12T05:55:13.352Z,100598.22
2024-01-12T05:58:17.047Z,100594.44
2024-01-12T06:01:21.802Z,100598.44
2024-01-12T06:04:25.985Z,100605.47
2024-01-12T06:07:28.958Z,100612.59
2024-01-12T06:10:32.232Z,100626.19
2024-01-12T06:13:35.241Z,100621.47
2024-01-12T06:16:41.573Z,100626.75
2024-01-12T06:19:44.801Z,100632.63
2024-01-12T06:22:49.346Z,100636.59
2024-01-12T06:25:52.565Z,100627.84
2024-01-12T06:28:55.888Z,100625.97
2024-01-12T06:31:58.822Z,100638.13
2024-01-12T06:35:02.165Z,100636.28
2024-01-12T06:38:05.259Z,100637.63
2024-01-12T06:41:09.533Z,100640.78
2024-01-12T06:44:14.481Z,100640.09
2024-01-12T06:47:17.852Z,100635.62
2024-01-12T06:50:21.851Z,100642.25
2024-01-12T06:53:25.203Z,100644.63
2024-01-12T06:56:28.485Z,100649.63
2024-01-12T06:59:31.863Z,100645.75
2024-01-12T07:02:35.877Z,100652.12
2024-01-12T07:05:39.567Z,100653.78
2024-01-12T07:08:42.658Z,100654.34
2024-01-12T07:11:46.590Z,100658.63
2024-01-12T07:14:50.189Z,100659.00
2024-01-12T07:17:54.211Z,100658.47
2024-01-12T07:20:58.840Z,100666.72
2024-01-12T07:24:03.082Z,100656.47
2024-01-12T07:27:06.744Z,100653.63
2024-01-12T07:30:10.343Z,100653.16
2024-01-12T07:33:14.471Z,100661.16
2024-01-12T07:36:17.861Z,100655.91
2024-01-12T07:39:21.388Z,100662.53
2024-01-12T07:42:28.150Z,100662.38
2024-01-12T07:45:38.854Z,100676.50
2024-01-12T07:48:42.896Z,100674.94
2024-01-12T07:51:50.178Z,100676.03
2024-01-12T07:54:55.182Z,100676.38
2024-01-12T07:58:00.613Z,100686.16
2024-01-12T08:01:08.672Z,100694.59
2024-01-12T08:04:12.137Z,100697.31
2024-01-12T08:07:16.850Z,100694.66
2024-01-12T08:10:21.522Z,100703.88
2024-01-12T08:13:27.728Z,100707.47
2024-01-12T08:16:32.638Z,100713.38
2024-01-12T08:19:38.864Z,100712.13
2024-01-12T08:22:42.463Z,100712.31
2024-01-12T08:25:46.929Z,100711.87
2024-01-12T08:28:56.619Z,100718.37
2024-01-12T08:32:02.272Z,100721.34
2024-01-12T08:35:07.848Z,100725.31
2024-01-12T08:38:13.460Z,100720.09
2024-01-12T08:41:18.563Z,100735.00
2024-01-12T08:44:21.682Z,100739.28
2024-01-12T08:47:25.289Z,100751.31
2024-01-12T08:50:30.824Z,100745.53
2024-01-12T08:53:34.158Z,100738.63
2024-01-12T08:56:36.842Z,100744.44
2024-01-12T08:59:40.238Z,100752.66
2024-01-12T09:02:45.825Z,100750.25
2024-01-12T09:05:49.280Z,100749.66
2024-01-12T09:08:53.319Z,100750.53
2024-01-12T09:11:56.769Z,100758.81
2024-01-12T09:15:03.920Z,100765.44
2024-01-12T09:18:08.364Z,100764.34
2024-01-12T09:21:16.478Z,100766.75
2024-01-12T09:24:19.930Z,100765.94
2024-01-12T09:27:23.133Z,100767.50
2024-01-12T09:30:26.449Z,100769.97
2024-01-12T09:33:31.727Z,100768.84
2024-01-12T09:36:35.038Z,100769.28
2024-01-12T09:39:37.908Z,100769.06
2024-01-12T09:42:43.517Z,100771.12
2024-01-12T09:45:51.912Z,100771.88
2024-01-12T09:48:55.308Z,100765.78
2024-01-12T09:51:59.783Z,100758.75
2024-01-12T09:55:03.204Z,100763.31
2024-01-12T09:58:08.812Z,100752.44
2024-01-12T10:01:13.448Z,100752.78
2024-01-12T10:04:16.843Z,100747.69
2024-01-12T10:07:20.420Z,100752.22
2024-01-12T10:10:25.622Z,100746.31
2024-01-12T10:13:29.421Z,100753.25
2024-01-12T10:16:33.975Z,100741.56
2024-01-12T10:19:37.120Z,100742.13
2024-01-12T10:22:40.352Z,100744.97
2024-01-12T10:25:43.345Z,100741.63
2024-01-12T10:28:46.642Z,100738.28
2024-01-12T10:31:49.668Z,100732.00
2024-01-12T10:34:54.373Z,100737.31
2024-01-12T10:38:01.767Z,100731.34
2024-01-12T10:41:08.620Z,100729.31
2024-01-12T10:44:16.268Z,100732.97
2024-01-12T10:47:23.412Z,100729.56
2024-01-12T10:50:27.019Z,100729.19
2024-01-12T10:53:49.022Z,100736.31
2024-01-12T10:56:52.689Z,100720.81
2024-01-12T10:59:58.075Z,100720.12
2024-01-12T11:03:02.279Z,100718.28
2024-01-12T11:06:08.996Z,100717.78
2024-01-12T11:09:17.747Z,100716.50
2024-01-12T11:12:40.246Z,100711.56
2024-01-12T11:15:43.913Z,100710.19
2024-01-12T11:18:47.269Z,100705.88
2024-01-12T11:21:50.401Z,100695.41
2024-01-12T11:24:55.206Z,100694.22
2024-01-12T11:28:01.675Z,100686.03
2024-01-12T11:31:05.141Z,100664.09
2024-01-12T11:34:08.409Z,100670.72
2024-01-12T11:37:12.208Z,100675.00
2024-01-12T11:40:18.488Z,100678.25
2024-01-12T11:43:27.411Z,100675.88
2024-01-12T11:46:30.684Z,100669.31
2024-01-12T11:49:35.481Z,100665.97
2024-01-12T11:52:38.586Z,100666.91
2024-01-12T11:55:42.094Z,100668.78
2024-01-12T11:58:45.140Z,100654.28
2024-01-12T12:01:48.829Z,100661.84
2024-01-12T12:04:55.594Z,100633.47
2024-01-12T12:08:01.800Z,100637.84
2024-01-12T12:11:06.488Z,100629.63
2024-01-12T12:14:09.872Z,100645.41
2024-01-12T12:17:13.241Z,100627.28
2024-01-12T12:20:17.140Z,100620.47
2024-01-12T12:23:20.449Z,100628.09
2024-01-12T12:26:23.553Z,100614.62
2024-01-12T12:29:30.041Z,100618.41
2024-01-12T12:32:33.203Z,100616.03
2024-01-12T12:35:36.784Z,100626.63
2024-01-12T12:38:40.812Z,100638.06
2024-01-12T12:41:44.492Z,100634.03
2024-01-12T12:44:47.557Z,100629.12
2024-01-12T12:47:51.663Z,100626.13
2024-01-12T12:50:54.956Z,100626.25
2024-01-12T12:53:58.277Z,100614.34
2024-01-12T12:57:03.811Z,100620.78
2024-01-12T13:00:13.726Z,100624.22
2024-01-12T13:03:18.537Z,100639.25
2024-01-12T13:06:22.228Z,100628.69
2024-01-12T13:09:27.531Z,100625.56
2024-01-12T13:12:31.810Z,100611.97
2024-01-12T13:15:35.557Z,100615.28
2024-01-12T13:18:39.288Z,100615.22
2024-01-12T13:21:43.768Z,100608.56
2024-01-12T13:24:47.060Z,100610.63
2024-01-12T13:27:50.061Z,100605.63
2024-01-12T13:30:53.357Z,100601.59
2024-01-12T13:33:56.473Z,100599.78
2024-01-12T13:37:04.189Z,100598.38
2024-01-12T13:40:07.830Z,100602.22
2024-01-12T13:43:11.483Z,100601.59
2024-01-12T13:46:14.873Z,100593.16
2024-01-12T13:49:18.805Z,100586.53
2024-01-12T13:52:22.188Z,100591.50
2024-01-12T13:55:25.673Z,100597.31
2024-01-12T13:58:29.273Z,100601.66
2024-01-12T14:01:35.025Z,100598.75
2024-01-12T14:04:38.270Z,100603.25
2024-01-12T14:07:44.573Z,100593.91
2024-01-12T14:10:50.266Z,100594.34
2024-01-12T14:13:57.662Z,100595.00
2024-01-12T14:17:01.855Z,100603.03
2024-01-12T14:20:05.520Z,100589.69
2024-01-12T14:23:10.567Z,100595.84
2024-01-12T14:26:16.538Z,100587.31
2024-01-12T14:29:22.885Z,100581.75
2024-01-12T14:32:27.676Z,100588.47
2024-01-12T14:35:32.469Z,100585.69
2024-01-12T14:38:36.948Z,100591.31
2024-01-12T14:41:40.371Z,100597.16
2024-01-12T14:44:43.949Z,100585.19
2024-01-12T14:47:48.553Z,100593.44
2024-01-12T14:50:53.336Z,100602.06
2024-01-12T14:53:56.940Z,100604.13
2024-01-12T14:57:00.637Z,100608.09
2024-01-12T15:00:07.969Z,100599.03
2024-01-12T15:03:12.165Z,100598.50
2024-01-12T15:06:16.278Z,100591.22
2024-01-12T15:09:20.218Z,100586.31
2024-01-12T15:12:23.601Z,100594.78
2024-01-12T15:15:27.664Z,100599.53
2024-01-12T15:18:31.461Z,100603.75
2024-01-12T15:21:34.881Z,100606.28
2024-01-12T15:24:38.192Z,100608.22
2024-01-12T15:27:41.152Z,100606.84
2024-01-12T15:30:45.136Z,100610.53
2024-01-12T15:33:49.199Z,100609.81
2024-01-12T15:36:52.588Z,100608.78
2024-01-12T15:39:55.593Z,100612.63
2024-01-12T15:42:58.920Z,100615.03
2024-01-12T15:46:03.775Z,100614.00
2024-01-12T15:49:07.594Z,100620.16
2024-01-12T15:52:14.663Z,100619.63
2024-01-12T15:55:17.988Z,100616.00
2024-01-12T15:58:21.858Z,100621.59
2024-01-12T16:01:26.194Z,100622.25
2024-01-12T16:04:29.796Z,100616.13
2024-01-12T16:07:32.844Z,100608.91
2024-01-12T16:10:38.169Z,100606.28
2024-01-12T16:13:42.224Z,100598.28
2024-01-12T16:16:45.814Z,100605.47
2024-01-12T16:19:50.288Z,100594.28
2024-01-12T16:22:53.966Z,100598.28
2024-01-12T16:25:58.389Z,100596.94
2024-01-12T16:29:01.717Z,100609.44
2024-01-12T16:32:09.117Z,100608.72
2024-01-12T16:35:13.945Z,100617.72
2024-01-12T16:38:20.747Z,100612.50
2024-01-12T16:41:27.720Z,100607.72
2024-01-12T16:44:31.106Z,100608.38
2024-01-12T16:47:34.644Z,100613.56
2024-01-12T16:50:37.766Z,100620.56
2024-01-12T16:53:41.133Z,100619.47
2024-01-12T16:56:44.294Z,100619.19
2024-01-12T16:59:49.168Z,100613.37
2024-01-12T17:02:55.029Z,100611.25
2024-01-12T17:06:01.729Z,100625.38
2024-01-12T17:09:06.239Z,100638.44
2024-01-12T17:12:09.799Z,100635.75
2024-01-12T17:15:17.268Z,100640.50
2024-01-12T17:18:26.397Z,100638.94
2024-01-12T17:21:35.490Z,100629.59
2024-01-12T17:24:38.922Z,100625.59
2024-01-12T17:27:41.893Z,100624.00
2024-01-12T17:30:46.107Z,100624.03
2024-01-12T17:33:51.366Z,100631.13
2024-01-12T17:36:54.358Z,100633.59
2024-01-12T17:39:58.768Z,100626.94
2024-01-12T17:43:02.019Z,100621.59
2024-01-12T17:46:05.032Z,100628.00
2024-01-12T17:49:08.752Z,100633.06
2024-01-12T17:52:11.817Z,100642.12
2024-01-12T17:55:15.116Z,100644.25
2024-01-12T17:58:18.390Z,100641.81
2024-01-12T18:01:22.433Z,100643.78
2024-01-12T18:04:26.070Z,100638.41
2024-01-12T18:07:29.266Z,100636.00
2024-01-12T18:10:32.600Z,100632.56
2024-01-12T18:13:37.234Z,100636.03
2024-01-12T18:16:43.278Z,100641.63
2024-01-12T18:19:48.848Z,100644.53
2024-01-12T18:22:52.749Z,100646.19
2024-01-12T18:25:55.690Z,100647.75
2024-01-12T18:28:59.024Z,100641.91
2024-01-12T18:32:02.332Z,100640.03
2024-01-12T18:35:06.657Z,100632.56
2024-01-12T18:38:11.446Z,100642.69
2024-01-12T18:41:14.834Z,100644.88
2024-01-12T18:44:18.572Z,100641.72
2024-01-12T18:47:22.279Z,100644.94
2024-01-12T18:50:25.380Z,100639.84
2024-01-12T18:53:29.047Z,100649.91
2024-01-12T18:56:32.092Z,100651.78
2024-01-12T18:59:36.780Z,100654.69
2024-01-12T19:02:39.764Z,100640.56
2024-01-12T19:05:47.216Z,100646.44
2024-01-12T19:08:50.412Z,100636.34
2024-01-12T19:11:54.449Z,100633.50
2024-01-12T19:14:57.279Z,100638.78
2024-01-12T19:18:00.631Z,100636.66
2024-01-12T19:21:03.905Z,100626.81
2024-01-12T19:24:07.563Z,100629.75
2024-01-12T19:27:11.257Z,100630.06
2024-01-12T19:30:16.321Z,100635.38
2024-01-12T19:33:19.574Z,100617.53
2024-01-12T19:36:24.195Z,100628.19
2024-01-12T19:39:27.179Z,100623.91
2024-01-12T19:42:30.918Z,100611.72
2024-01-12T19:45:33.930Z,100613.31
2024-01-12T19:48:37.838Z,100606.13
2024-01-12T19:51:41.136Z,100619.47
2024-01-12T19:54:44.448Z,100613.06
2024-01-12T19:57:47.892Z,100613.91
2024-01-12T20:00:51.218Z,100612.84
2024-01-12T20:03:55.414Z,100614.47
2024-01-12T20:06:58.889Z,100606.22
2024-01-12T20:10:05.424Z,100611.53
2024-01-12T20:13:08.440Z,100613.41
2024-01-12T20:16:13.077Z,100609.94
2024-01-12T20:19:16.526Z,100603.56
2024-01-12T20:22:21.147Z,100607.56
2024-01-12T20:25:24.282Z,100608.88
2024-01-12T20:28:28.512Z,100601.69
2024-01-12T20:31:31.628Z,100591.34
2024-01-12T20:34:37.196Z,100594.50
2024-01-12T20:37:40.852Z,100601.16
2024-01-12T20:40:55.893Z,100613.94
2024-01-12T20:43:58.931Z,100620.03
2024-01-12T20:47:02.997Z,100626.44
2024-01-12T20:50:06.845Z,100637.00
2024-01-12T20:53:10.110Z,100634.34
2024-01-12T20:56:13.606Z,100644.97
2024-01-12T20:59:16.984Z,100643.94
2024-01-12T21:02:20.263Z,100621.09
2024-01-12T21:05:23.608Z,100627.19
2024-01-12T21:08:29.291Z,100633.84
2024-01-12T21:11:34.116Z,100625.34
2024-01-12T21:14:37.444Z,100616.56
2024-01-12T21:17:41.806Z,100612.34
2024-01-12T21:20:46.944Z,100602.22
2024-01-12T21:23:50.479Z,100607.00
2024-01-12T21:26:53.857Z,100599.31
2024-01-12T21:29:57.366Z,100591.06
2024-01-12T21:33:00.570Z,100597.66
2024-01-12T21:36:04.137Z,100589.22
2024-01-12T21:39:12.460Z,100586.00
2024-01-12T21:42:16.136Z,100582.53
2024-01-12T21:45:19.245Z,100585.72
2024-01-12T21:48:22.980Z,100574.06
2024-01-12T21:51:26.175Z,100565.81
2024-01-12T21:54:29.501Z,100564.50
2024-01-12T21:57:32.478Z,100579.37
2024-01-12T22:00:35.900Z,100578.03
2024-01-12T22:03:39.429Z,100577.50
2024-01-12T22:06:42.488Z,100577.53
2024-01-12T22:09:46.600Z,100582.03
2024-01-12T22:12:50.887Z,100577.53
2024-01-12T22:15:55.416Z,100587.38
2024-01-12T22:19:00.407Z,100587.88
2024-01-12T22:22:04.128Z,100595.59
2024-01-12T22:25:08.443Z,100606.47
2024-01-12T22:28:12.901Z,100611.78
2024-01-12T22:31:15.902Z,100613.94
2024-01-12T22:34:20.469Z,100609.41
2024-01-12T22:37:23.472Z,100605.94
2024-01-12T22:40:26.783Z,100606.50
2024-01-12T22:43:29.891Z,100601.69
2024-01-12T22:46:33.176Z,100591.59
2024-01-12T22:49:36.301Z,100597.72
2024-01-12T22:52:42.901Z,100600.34
2024-01-12T22:55:46.047Z,100606.75
2024-01-12T22:58:49.723Z,100603.31
2024-01-12T23:01:52.620Z,100603.28
2024-01-12T23:04:57.347Z,100598.22
2024-01-12T23:08:01.866Z,100591.34
2024-01-12T23:11:05.114Z,100586.53
2024-01-12T23:14:08.098Z,100591.06
2024-01-12T23:17:11.444Z,100591.31
2024-01-12T23:20:18.964Z,100595.53
2024-01-12T23:23:23.595Z,100608.59
2024-01-12T23:26:26.862Z,100598.22
2024-01-12T23:29:35.725Z,100592.38
2024-01-12T23:32:49.933Z,100596.66
2024-01-12T23:35:54.862Z,100595.81
2024-01-12T23:38:58.053Z,100594.25
2024-01-12T23:42:01.711Z,100596.91
2024-01-12T23:45:05.202Z,100602.22
2024-01-12T23:48:12.024Z,100590.25
2024-01-12T23:51:18.589Z,100592.13
2024-01-12T23:54:23.639Z,100591.34
2024-01-12T23:57:29.626Z,100592.13
